Eaglesham, United Kingdom
Current Conditions -  °F | °C
As of 7:20 PM on Monday 20 Oct 2014 (Local Time) from EGPF Reporting Station
Overcast Overcast  
Wind Chill: 54°   Ceiling: 2700
Heat Index: 54°   Visibility: 6mi
Dew Point: 50°   Wind: 12mph
Humidity: 88%   Direction: 200°SSW
Pressure: 29.59"   Gusts: NA
Location:  55.74°N, 4.27°W
Report Text: EGPF 201820Z AUTO 20010KT 9999 SCT015 BKN027 OVC042 12/10 Q1002
Loading
Personal Weather Stations






























Interactive Weather Map New forecast layout! Learn more

10-Day Weather Forecast

Advertisements
Track Severe Weather on mobile